sensor_id;sensor_type;location;lat;lon;timestamp;temperature;humidity
3564;DHT22;1796;52.388;13.096;2022-08-21T00:00:21;19.00;99.90
3564;DHT22;1796;52.388;13.096;2022-08-21T00:02:53;18.90;99.90
3564;DHT22;1796;52.388;13.096;2022-08-21T00:05:20;18.90;99.90
3564;DHT22;1796;52.388;13.096;2022-08-21T00:07:50;18.90;99.90
3564;DHT22;1796;52.388;13.096;2022-08-21T00:10:18;18.80;99.90
3564;DHT22;1796;52.388;13.096;2022-08-21T00:12:45;18.70;99.90
3564;DHT22;1796;52.388;13.096;2022-08-21T00:15:15;18.70;99.90
3564;DHT22;1796;52.388;13.096;2022-08-21T00:17:42;18.70;99.90
3564;DHT22;1796;52.388;13.096;2022-08-21T00:20:14;18.60;99.90
3564;DHT22;1796;52.388;13.096;2022-08-21T00:22:42;18.60;99.90
3564;DHT22;1796;52.388;13.096;2022-08-21T00:25:10;18.60;99.90
3564;DHT22;1796;52.388;13.096;2022-08-21T00:27:37;18.60;99.90
3564;DHT22;1796;52.388;13.096;2022-08-21T00:30:06;18.60;99.90
3564;DHT22;1796;52.388;13.096;2022-08-21T00:32:34;18.50;99.90
3564;DHT22;1796;52.388;13.096;2022-08-21T00:35:03;18.40;99.90
3564;DHT22;1796;52.388;13.096;2022-08-21T00:37:30;18.40;99.90
3564;DHT22;1796;52.388;13.096;2022-08-21T00:39:57;18.40;99.90
3564;DHT22;1796;52.388;13.096;2022-08-21T00:42:26;18.40;99.90
3564;DHT22;1796;52.388;13.096;2022-08-21T00:44:53;18.30;99.90
3564;DHT22;1796;52.388;13.096;2022-08-21T00:47:20;18.30;99.90
3564;DHT22;1796;52.388;13.096;2022-08-21T00:49:47;18.30;99.90
3564;DHT22;1796;52.388;13.096;2022-08-21T00:52:18;18.20;99.90
3564;DHT22;1796;52.388;13.096;2022-08-21T00:54:47;18.20;99.90
3564;DHT22;1796;52.388;13.096;2022-08-21T00:57:17;18.10;99.90
3564;DHT22;1796;52.388;13.096;2022-08-21T00:59:50;18.10;99.90
3564;DHT22;1796;52.388;13.096;2022-08-21T01:02:18;18.10;99.90
3564;DHT22;1796;52.388;13.096;2022-08-21T01:04:45;18.10;99.90
3564;DHT22;1796;52.388;13.096;2022-08-21T01:07:12;18.00;99.90
3564;DHT22;1796;52.388;13.096;2022-08-21T01:09:40;18.00;99.90
3564;DHT22;1796;52.388;13.096;2022-08-21T01:12:08;18.00;99.90
3564;DHT22;1796;52.388;13.096;2022-08-21T01:14:35;18.00;99.90
3564;DHT22;1796;52.388;13.096;2022-08-21T01:17:04;18.00;99.90
3564;DHT22;1796;52.388;13.096;2022-08-21T01:19:31;18.00;99.90
3564;DHT22;1796;52.388;13.096;2022-08-21T01:22:00;17.90;99.90
3564;DHT22;1796;52.388;13.096;2022-08-21T01:24:27;17.90;99.90
3564;DHT22;1796;52.388;13.096;2022-08-21T01:26:54;17.90;99.90
3564;DHT22;1796;52.388;13.096;2022-08-21T01:29:30;17.80;99.90
3564;DHT22;1796;52.388;13.096;2022-08-21T01:31:59;17.80;99.90
3564;DHT22;1796;52.388;13.096;2022-08-21T01:34:26;17.80;99.90
3564;DHT22;1796;52.388;13.096;2022-08-21T01:36:53;17.80;99.90
3564;DHT22;1796;52.388;13.096;2022-08-21T01:39:21;17.80;99.90
3564;DHT22;1796;52.388;13.096;2022-08-21T01:41:48;17.80;99.90
3564;DHT22;1796;52.388;13.096;2022-08-21T01:44:15;17.70;99.90
3564;DHT22;1796;52.388;13.096;2022-08-21T01:46:42;17.70;99.90
3564;DHT22;1796;52.388;13.096;2022-08-21T01:49:08;17.70;99.90
3564;DHT22;1796;52.388;13.096;2022-08-21T01:51:35;17.60;99.90
3564;DHT22;1796;52.388;13.096;2022-08-21T01:54:03;17.60;99.90
3564;DHT22;1796;52.388;13.096;2022-08-21T01:56:36;17.60;99.90
3564;DHT22;1796;52.388;13.096;2022-08-21T01:59:03;17.60;99.90
3564;DHT22;1796;52.388;13.096;2022-08-21T02:01:30;17.60;99.90
3564;DHT22;1796;52.388;13.096;2022-08-21T02:03:57;17.50;99.90
3564;DHT22;1796;52.388;13.096;2022-08-21T02:06:25;17.60;99.90
3564;DHT22;1796;52.388;13.096;2022-08-21T02:08:53;17.50;99.90
3564;DHT22;1796;52.388;13.096;2022-08-21T02:11:20;17.50;99.90
3564;DHT22;1796;52.388;13.096;2022-08-21T02:13:48;17.40;99.90
3564;DHT22;1796;52.388;13.096;2022-08-21T02:16:15;17.40;99.90
3564;DHT22;1796;52.388;13.096;2022-08-21T02:18:42;17.30;99.90
3564;DHT22;1796;52.388;13.096;2022-08-21T02:21:09;17.30;99.90
3564;DHT22;1796;52.388;13.096;2022-08-21T02:23:36;17.40;99.90
3564;DHT22;1796;52.388;13.096;2022-08-21T02:26:06;17.30;99.90
3564;DHT22;1796;52.388;13.096;2022-08-21T02:28:33;17.30;99.90
3564;DHT22;1796;52.388;13.096;2022-08-21T02:31:02;17.30;99.90
3564;DHT22;1796;52.388;13.096;2022-08-21T02:33:29;17.30;99.90
3564;DHT22;1796;52.388;13.096;2022-08-21T02:35:57;17.20;99.90
3564;DHT22;1796;52.388;13.096;2022-08-21T02:38:25;17.20;99.90
3564;DHT22;1796;52.388;13.096;2022-08-21T02:40:54;17.10;99.90
3564;DHT22;1796;52.388;13.096;2022-08-21T02:43:23;17.10;99.90
3564;DHT22;1796;52.388;13.096;2022-08-21T02:45:51;17.10;99.90
3564;DHT22;1796;52.388;13.096;2022-08-21T02:48:22;17.10;99.90
3564;DHT22;1796;52.388;13.096;2022-08-21T02:50:53;17.10;99.90
3564;DHT22;1796;52.388;13.096;2022-08-21T02:53:20;17.10;99.90
3564;DHT22;1796;52.388;13.096;2022-08-21T02:55:49;17.10;99.90
3564;DHT22;1796;52.388;13.096;2022-08-21T02:58:19;17.10;99.90
3564;DHT22;1796;52.388;13.096;2022-08-21T03:00:46;17.10;99.90
3564;DHT22;1796;52.388;13.096;2022-08-21T03:03:14;17.20;99.90
3564;DHT22;1796;52.388;13.096;2022-08-21T03:05:43;17.20;99.90
3564;DHT22;1796;52.388;13.096;2022-08-21T03:08:12;17.10;99.90
3564;DHT22;1796;52.388;13.096;2022-08-21T03:10:41;17.10;99.90
3564;DHT22;1796;52.388;13.096;2022-08-21T03:13:08;17.10;99.90
3564;DHT22;1796;52.388;13.096;2022-08-21T03:15:35;17.10;99.90
3564;DHT22;1796;52.388;13.096;2022-08-21T03:18:03;17.10;99.90
3564;DHT22;1796;52.388;13.096;2022-08-21T03:20:31;17.00;99.90
3564;DHT22;1796;52.388;13.096;2022-08-21T03:23:00;17.00;99.90
3564;DHT22;1796;52.388;13.096;2022-08-21T03:25:29;16.90;99.90
3564;DHT22;1796;52.388;13.096;2022-08-21T03:27:57;16.90;99.90
3564;DHT22;1796;52.388;13.096;2022-08-21T03:30:24;16.90;99.90
3564;DHT22;1796;52.388;13.096;2022-08-21T03:32:51;16.80;99.90
3564;DHT22;1796;52.388;13.096;2022-08-21T03:35:19;16.90;99.90
3564;DHT22;1796;52.388;13.096;2022-08-21T03:37:46;16.80;99.90
3564;DHT22;1796;52.388;13.096;2022-08-21T03:40:16;16.70;99.90
3564;DHT22;1796;52.388;13.096;2022-08-21T03:42:44;16.70;99.90
3564;DHT22;1796;52.388;13.096;2022-08-21T03:45:13;16.70;99.90
3564;DHT22;1796;52.388;13.096;2022-08-21T03:47:51;16.70;99.90
3564;DHT22;1796;52.388;13.096;2022-08-21T03:50:18;16.70;99.90
3564;DHT22;1796;52.388;13.096;2022-08-21T03:52:45;16.80;99.90
3564;DHT22;1796;52.388;13.096;2022-08-21T03:55:12;16.70;99.90
3564;DHT22;1796;52.388;13.096;2022-08-21T03:57:40;16.70;99.90
3564;DHT22;1796;52.388;13.096;2022-08-21T04:00:08;16.60;99.90
3564;DHT22;1796;52.388;13.096;2022-08-21T04:02:37;16.60;99.90
3564;DHT22;1796;52.388;13.096;2022-08-21T04:05:05;16.50;99.90
3564;DHT22;1796;52.388;13.096;2022-08-21T04:07:33;16.50;99.90
3564;DHT22;1796;52.388;13.096;2022-08-21T04:10:01;16.40;99.90
3564;DHT22;1796;52.388;13.096;2022-08-21T04:12:28;16.40;99.90
3564;DHT22;1796;52.388;13.096;2022-08-21T04:14:57;16.40;99.90
3564;DHT22;1796;52.388;13.096;2022-08-21T04:17:24;16.40;99.90
3564;DHT22;1796;52.388;13.096;2022-08-21T04:19:52;16.30;99.90
3564;DHT22;1796;52.388;13.096;2022-08-21T04:22:19;16.30;99.90
3564;DHT22;1796;52.388;13.096;2022-08-21T04:24:46;16.30;99.90
3564;DHT22;1796;52.388;13.096;2022-08-21T04:27:13;16.30;99.90
3564;DHT22;1796;52.388;13.096;2022-08-21T04:29:40;16.20;99.90
3564;DHT22;1796;52.388;13.096;2022-08-21T04:32:08;16.30;99.90
3564;DHT22;1796;52.388;13.096;2022-08-21T04:34:35;16.20;99.90
3564;DHT22;1796;52.388;13.096;2022-08-21T04:37:02;16.30;99.90
3564;DHT22;1796;52.388;13.096;2022-08-21T04:39:29;16.30;99.90
3564;DHT22;1796;52.388;13.096;2022-08-21T04:41:56;16.30;99.90
3564;DHT22;1796;52.388;13.096;2022-08-21T04:44:23;16.30;99.90
3564;DHT22;1796;52.388;13.096;2022-08-21T04:46:50;16.30;99.90
3564;DHT22;1796;52.388;13.096;2022-08-21T04:49:18;16.30;99.90
3564;DHT22;1796;52.388;13.096;2022-08-21T04:51:45;16.40;99.90
3564;DHT22;1796;52.388;13.096;2022-08-21T04:54:17;16.50;99.90
3564;DHT22;1796;52.388;13.096;2022-08-21T04:56:48;16.50;99.90
3564;DHT22;1796;52.388;13.096;2022-08-21T04:59:20;16.60;99.90
3564;DHT22;1796;52.388;13.096;2022-08-21T05:01:48;16.60;99.90
3564;DHT22;1796;52.388;13.096;2022-08-21T05:04:21;16.60;99.90
3564;DHT22;1796;52.388;13.096;2022-08-21T05:06:53;16.70;99.90
3564;DHT22;1796;52.388;13.096;2022-08-21T05:09:21;16.80;99.90
3564;DHT22;1796;52.388;13.096;2022-08-21T05:11:49;16.80;99.90
3564;DHT22;1796;52.388;13.096;2022-08-21T05:14:17;16.90;99.90
3564;DHT22;1796;52.388;13.096;2022-08-21T05:16:45;16.90;99.90
3564;DHT22;1796;52.388;13.096;2022-08-21T05:19:12;16.90;99.90
3564;DHT22;1796;52.388;13.096;2022-08-21T05:21:43;16.90;99.90
3564;DHT22;1796;52.388;13.096;2022-08-21T05:24:11;16.90;99.90
3564;DHT22;1796;52.388;13.096;2022-08-21T05:26:38;17.00;99.90
3564;DHT22;1796;52.388;13.096;2022-08-21T05:29:05;17.00;99.90
3564;DHT22;1796;52.388;13.096;2022-08-21T05:31:32;17.10;99.90
3564;DHT22;1796;52.388;13.096;2022-08-21T05:33:59;17.20;99.90
3564;DHT22;1796;52.388;13.096;2022-08-21T05:36:26;17.30;99.90
3564;DHT22;1796;52.388;13.096;2022-08-21T05:38:54;17.40;99.90
3564;DHT22;1796;52.388;13.096;2022-08-21T05:41:21;17.40;99.90
3564;DHT22;1796;52.388;13.096;2022-08-21T05:43:48;17.50;99.90
3564;DHT22;1796;52.388;13.096;2022-08-21T05:46:15;17.60;99.90
3564;DHT22;1796;52.388;13.096;2022-08-21T05:48:42;17.60;99.90
3564;DHT22;1796;52.388;13.096;2022-08-21T05:51:11;17.60;99.90
3564;DHT22;1796;52.388;13.096;2022-08-21T05:53:39;17.80;99.90
3564;DHT22;1796;52.388;13.096;2022-08-21T05:56:09;17.80;99.90
3564;DHT22;1796;52.388;13.096;2022-08-21T05:58:36;17.80;99.90
3564;DHT22;1796;52.388;13.096;2022-08-21T06:01:04;17.70;99.90
3564;DHT22;1796;52.388;13.096;2022-08-21T06:03:32;17.80;99.90
3564;DHT22;1796;52.388;13.096;2022-08-21T06:06:00;17.90;99.90
3564;DHT22;1796;52.388;13.096;2022-08-21T06:08:28;18.00;99.90
3564;DHT22;1796;52.388;13.096;2022-08-21T06:10:57;18.10;99.90
3564;DHT22;1796;52.388;13.096;2022-08-21T06:13:26;18.20;99.90
3564;DHT22;1796;52.388;13.096;2022-08-21T06:16:02;18.40;99.90
3564;DHT22;1796;52.388;13.096;2022-08-21T06:18:29;18.50;99.90
3564;DHT22;1796;52.388;13.096;2022-08-21T06:20:56;18.60;99.90
3564;DHT22;1796;52.388;13.096;2022-08-21T06:23:23;18.50;99.90
3564;DHT22;1796;52.388;13.096;2022-08-21T06:25:50;18.40;99.90
3564;DHT22;1796;52.388;13.096;2022-08-21T06:28:17;18.40;99.90
3564;DHT22;1796;52.388;13.096;2022-08-21T06:30:45;18.50;99.90
3564;DHT22;1796;52.388;13.096;2022-08-21T06:33:12;18.50;99.90
3564;DHT22;1796;52.388;13.096;2022-08-21T06:35:39;18.50;99.90
3564;DHT22;1796;52.388;13.096;2022-08-21T06:38:06;18.50;99.90
3564;DHT22;1796;52.388;13.096;2022-08-21T06:40:33;18.70;99.90
3564;DHT22;1796;52.388;13.096;2022-08-21T06:43:05;18.80;99.90
3564;DHT22;1796;52.388;13.096;2022-08-21T06:45:33;19.00;99.90
3564;DHT22;1796;52.388;13.096;2022-08-21T06:48:01;19.10;99.90
3564;DHT22;1796;52.388;13.096;2022-08-21T06:50:28;19.20;99.90
3564;DHT22;1796;52.388;13.096;2022-08-21T06:52:59;19.30;99.90
3564;DHT22;1796;52.388;13.096;2022-08-21T06:55:26;19.50;99.90
3564;DHT22;1796;52.388;13.096;2022-08-21T06:57:54;19.70;99.90
3564;DHT22;1796;52.388;13.096;2022-08-21T07:00:21;20.00;99.90
3564;DHT22;1796;52.388;13.096;2022-08-21T07:02:48;20.30;99.90
3564;DHT22;1796;52.388;13.096;2022-08-21T07:05:17;20.20;99.90
3564;DHT22;1796;52.388;13.096;2022-08-21T07:07:45;20.20;99.90
3564;DHT22;1796;52.388;13.096;2022-08-21T07:10:12;20.50;99.90
3564;DHT22;1796;52.388;13.096;2022-08-21T07:12:39;20.70;99.90
3564;DHT22;1796;52.388;13.096;2022-08-21T07:15:07;20.90;99.90
3564;DHT22;1796;52.388;13.096;2022-08-21T07:17:34;21.10;99.90
3564;DHT22;1796;52.388;13.096;2022-08-21T07:20:02;21.30;99.90
3564;DHT22;1796;52.388;13.096;2022-08-21T07:22:31;21.30;99.90
3564;DHT22;1796;52.388;13.096;2022-08-21T07:24:58;21.30;99.90
3564;DHT22;1796;52.388;13.096;2022-08-21T07:27:25;21.50;99.90
3564;DHT22;1796;52.388;13.096;2022-08-21T07:29:52;21.60;99.90
3564;DHT22;1796;52.388;13.096;2022-08-21T07:32:19;21.80;99.90
3564;DHT22;1796;52.388;13.096;2022-08-21T07:34:46;22.10;99.90
3564;DHT22;1796;52.388;13.096;2022-08-21T07:37:13;21.90;99.90
3564;DHT22;1796;52.388;13.096;2022-08-21T07:39:41;22.00;99.90
3564;DHT22;1796;52.388;13.096;2022-08-21T07:42:09;22.30;99.90
3564;DHT22;1796;52.388;13.096;2022-08-21T07:44:36;22.80;99.90
3564;DHT22;1796;52.388;13.096;2022-08-21T07:47:03;23.10;99.90
3564;DHT22;1796;52.388;13.096;2022-08-21T07:49:30;23.60;99.90
3564;DHT22;1796;52.388;13.096;2022-08-21T07:51:58;23.70;99.90
3564;DHT22;1796;52.388;13.096;2022-08-21T07:54:25;23.60;99.90
3564;DHT22;1796;52.388;13.096;2022-08-21T07:56:53;23.70;99.90
3564;DHT22;1796;52.388;13.096;2022-08-21T07:59:20;23.80;99.90
3564;DHT22;1796;52.388;13.096;2022-08-21T08:01:47;24.10;99.90
3564;DHT22;1796;52.388;13.096;2022-08-21T08:04:14;24.20;99.90
3564;DHT22;1796;52.388;13.096;2022-08-21T08:06:41;24.40;99.90
3564;DHT22;1796;52.388;13.096;2022-08-21T08:09:08;24.20;99.90
3564;DHT22;1796;52.388;13.096;2022-08-21T08:11:35;23.90;99.90
3564;DHT22;1796;52.388;13.096;2022-08-21T08:14:05;23.80;99.90
3564;DHT22;1796;52.388;13.096;2022-08-21T08:16:32;23.70;99.90
3564;DHT22;1796;52.388;13.096;2022-08-21T08:18:59;23.30;99.90
3564;DHT22;1796;52.388;13.096;2022-08-21T08:21:26;23.00;99.90
3564;DHT22;1796;52.388;13.096;2022-08-21T08:23:53;23.20;99.90
3564;DHT22;1796;52.388;13.096;2022-08-21T08:26:20;23.20;99.90
3564;DHT22;1796;52.388;13.096;2022-08-21T08:28:47;22.60;99.90
3564;DHT22;1796;52.388;13.096;2022-08-21T08:31:15;22.40;99.90
3564;DHT22;1796;52.388;13.096;2022-08-21T08:33:42;22.40;99.90
3564;DHT22;1796;52.388;13.096;2022-08-21T08:36:14;22.40;99.90
3564;DHT22;1796;52.388;13.096;2022-08-21T08:38:41;22.10;99.90
3564;DHT22;1796;52.388;13.096;2022-08-21T08:41:12;22.40;99.90
3564;DHT22;1796;52.388;13.096;2022-08-21T08:43:48;22.40;99.90
3564;DHT22;1796;52.388;13.096;2022-08-21T08:46:24;22.50;99.90
3564;DHT22;1796;52.388;13.096;2022-08-21T08:48:57;22.50;99.90
3564;DHT22;1796;52.388;13.096;2022-08-21T08:51:28;22.60;99.90
3564;DHT22;1796;52.388;13.096;2022-08-21T08:54:00;22.70;99.90
3564;DHT22;1796;52.388;13.096;2022-08-21T08:56:31;22.80;99.90
3564;DHT22;1796;52.388;13.096;2022-08-21T08:59:02;22.90;99.90
3564;DHT22;1796;52.388;13.096;2022-08-21T09:01:33;23.10;99.90
3564;DHT22;1796;52.388;13.096;2022-08-21T09:04:01;23.00;99.90
3564;DHT22;1796;52.388;13.096;2022-08-21T09:06:44;23.20;99.90
3564;DHT22;1796;52.388;13.096;2022-08-21T09:09:29;23.00;99.90
3564;DHT22;1796;52.388;13.096;2022-08-21T09:12:02;23.00;99.90
3564;DHT22;1796;52.388;13.096;2022-08-21T09:17:12;23.30;99.90
3564;DHT22;1796;52.388;13.096;2022-08-21T09:19:56;23.10;99.90
3564;DHT22;1796;52.388;13.096;2022-08-21T09:22:37;22.70;99.90
3564;DHT22;1796;52.388;13.096;2022-08-21T09:25:12;22.90;99.90
3564;DHT22;1796;52.388;13.096;2022-08-21T09:27:41;22.80;99.90
3564;DHT22;1796;52.388;13.096;2022-08-21T09:30:09;22.60;99.90
3564;DHT22;1796;52.388;13.096;2022-08-21T09:32:39;22.80;99.90
3564;DHT22;1796;52.388;13.096;2022-08-21T09:35:08;23.10;99.90
3564;DHT22;1796;52.388;13.096;2022-08-21T09:37:49;23.20;99.90
3564;DHT22;1796;52.388;13.096;2022-08-21T09:40:23;23.50;99.90
3564;DHT22;1796;52.388;13.096;2022-08-21T09:42:57;23.60;99.90
3564;DHT22;1796;52.388;13.096;2022-08-21T09:45:25;23.50;99.90
3564;DHT22;1796;52.388;13.096;2022-08-21T09:47:53;23.70;99.90
3564;DHT22;1796;52.388;13.096;2022-08-21T09:50:23;24.00;99.90
3564;DHT22;1796;52.388;13.096;2022-08-21T09:52:51;24.10;99.90
3564;DHT22;1796;52.388;13.096;2022-08-21T09:55:29;24.00;99.90
3564;DHT22;1796;52.388;13.096;2022-08-21T09:58:15;23.60;99.90
3564;DHT22;1796;52.388;13.096;2022-08-21T10:00:42;23.60;99.90
3564;DHT22;1796;52.388;13.096;2022-08-21T10:03:15;23.20;99.90
3564;DHT22;1796;52.388;13.096;2022-08-21T10:05:51;23.30;99.90
3564;DHT22;1796;52.388;13.096;2022-08-21T10:08:20;23.40;99.90
3564;DHT22;1796;52.388;13.096;2022-08-21T10:10:51;23.50;99.90
3564;DHT22;1796;52.388;13.096;2022-08-21T10:13:25;24.10;99.90
3564;DHT22;1796;52.388;13.096;2022-08-21T10:16:03;24.10;99.90
3564;DHT22;1796;52.388;13.096;2022-08-21T10:18:39;23.70;99.90
3564;DHT22;1796;52.388;13.096;2022-08-21T10:21:15;23.90;99.90
3564;DHT22;1796;52.388;13.096;2022-08-21T10:23:54;23.80;99.90
3564;DHT22;1796;52.388;13.096;2022-08-21T10:26:32;24.30;99.90
3564;DHT22;1796;52.388;13.096;2022-08-21T10:29:07;24.30;99.90
3564;DHT22;1796;52.388;13.096;2022-08-21T10:31:49;24.40;99.90
3564;DHT22;1796;52.388;13.096;2022-08-21T10:34:31;24.00;99.90
3564;DHT22;1796;52.388;13.096;2022-08-21T10:37:11;24.40;99.90
3564;DHT22;1796;52.388;13.096;2022-08-21T10:39:49;24.20;99.90
3564;DHT22;1796;52.388;13.096;2022-08-21T10:42:30;24.00;99.90
3564;DHT22;1796;52.388;13.096;2022-08-21T10:45:08;24.10;99.90
3564;DHT22;1796;52.388;13.096;2022-08-21T10:47:41;24.20;99.90
3564;DHT22;1796;52.388;13.096;2022-08-21T10:50:22;24.20;99.90
3564;DHT22;1796;52.388;13.096;2022-08-21T10:53:05;24.10;99.90
3564;DHT22;1796;52.388;13.096;2022-08-21T10:55:42;24.20;99.90
3564;DHT22;1796;52.388;13.096;2022-08-21T10:58:14;24.20;99.90
3564;DHT22;1796;52.388;13.096;2022-08-21T11:00:46;24.10;99.90
3564;DHT22;1796;52.388;13.096;2022-08-21T11:03:16;24.40;99.90
3564;DHT22;1796;52.388;13.096;2022-08-21T11:05:50;24.50;99.90
3564;DHT22;1796;52.388;13.096;2022-08-21T11:08:22;24.30;99.90
3564;DHT22;1796;52.388;13.096;2022-08-21T11:10:52;24.40;99.90
3564;DHT22;1796;52.388;13.096;2022-08-21T11:13:26;24.20;99.90
3564;DHT22;1796;52.388;13.096;2022-08-21T11:16:00;24.40;99.90
3564;DHT22;1796;52.388;13.096;2022-08-21T11:18:32;24.70;99.90
3564;DHT22;1796;52.388;13.096;2022-08-21T11:21:07;24.70;99.90
3564;DHT22;1796;52.388;13.096;2022-08-21T11:23:42;25.00;99.90
3564;DHT22;1796;52.388;13.096;2022-08-21T11:26:15;24.90;99.90
3564;DHT22;1796;52.388;13.096;2022-08-21T11:28:48;24.90;99.90
3564;DHT22;1796;52.388;13.096;2022-08-21T11:31:35;24.80;99.90
3564;DHT22;1796;52.388;13.096;2022-08-21T11:34:13;24.80;99.90
3564;DHT22;1796;52.388;13.096;2022-08-21T11:36:53;24.90;99.90
3564;DHT22;1796;52.388;13.096;2022-08-21T11:39:30;25.00;99.90
3564;DHT22;1796;52.388;13.096;2022-08-21T11:42:11;25.00;99.90
3564;DHT22;1796;52.388;13.096;2022-08-21T11:44:49;24.70;99.90
3564;DHT22;1796;52.388;13.096;2022-08-21T11:47:30;24.30;99.90
3564;DHT22;1796;52.388;13.096;2022-08-21T11:50:10;24.50;99.90
3564;DHT22;1796;52.388;13.096;2022-08-21T11:52:43;24.70;99.90
3564;DHT22;1796;52.388;13.096;2022-08-21T11:55:16;24.70;99.90
3564;DHT22;1796;52.388;13.096;2022-08-21T11:57:50;24.70;99.90
3564;DHT22;1796;52.388;13.096;2022-08-21T12:00:22;24.60;99.90
3564;DHT22;1796;52.388;13.096;2022-08-21T12:02:53;24.50;99.90
3564;DHT22;1796;52.388;13.096;2022-08-21T12:05:30;24.50;99.90
3564;DHT22;1796;52.388;13.096;2022-08-21T12:08:26;24.40;99.90
3564;DHT22;1796;52.388;13.096;2022-08-21T12:11:03;24.40;99.90
3564;DHT22;1796;52.388;13.096;2022-08-21T12:13:33;24.50;99.90
3564;DHT22;1796;52.388;13.096;2022-08-21T12:16:11;24.30;99.90
3564;DHT22;1796;52.388;13.096;2022-08-21T12:18:39;24.40;99.90
3564;DHT22;1796;52.388;13.096;2022-08-21T12:21:19;24.60;99.90
3564;DHT22;1796;52.388;13.096;2022-08-21T12:24:00;24.60;99.90
3564;DHT22;1796;52.388;13.096;2022-08-21T12:26:28;24.40;99.90
3564;DHT22;1796;52.388;13.096;2022-08-21T12:29:15;24.40;99.90
3564;DHT22;1796;52.388;13.096;2022-08-21T12:31:58;24.60;99.90
3564;DHT22;1796;52.388;13.096;2022-08-21T12:34:32;24.40;99.90
3564;DHT22;1796;52.388;13.096;2022-08-21T12:37:03;24.50;99.90
3564;DHT22;1796;52.388;13.096;2022-08-21T12:39:34;24.80;99.90
3564;DHT22;1796;52.388;13.096;2022-08-21T12:42:06;24.80;99.90
3564;DHT22;1796;52.388;13.096;2022-08-21T12:44:43;25.00;99.90
3564;DHT22;1796;52.388;13.096;2022-08-21T12:47:16;24.90;99.90
3564;DHT22;1796;52.388;13.096;2022-08-21T12:49:53;24.70;99.90
3564;DHT22;1796;52.388;13.096;2022-08-21T12:52:23;24.60;99.90
3564;DHT22;1796;52.388;13.096;2022-08-21T12:54:52;24.30;99.90
3564;DHT22;1796;52.388;13.096;2022-08-21T12:57:21;24.20;99.90
3564;DHT22;1796;52.388;13.096;2022-08-21T12:59:52;24.30;99.90
3564;DHT22;1796;52.388;13.096;2022-08-21T13:02:23;24.60;99.90
3564;DHT22;1796;52.388;13.096;2022-08-21T13:04:50;24.40;99.90
3564;DHT22;1796;52.388;13.096;2022-08-21T13:07:24;24.40;99.90
3564;DHT22;1796;52.388;13.096;2022-08-21T13:09:56;24.50;99.90
3564;DHT22;1796;52.388;13.096;2022-08-21T13:12:24;24.40;99.90
3564;DHT22;1796;52.388;13.096;2022-08-21T13:14:54;24.30;99.90
3564;DHT22;1796;52.388;13.096;2022-08-21T13:17:24;24.60;99.90
3564;DHT22;1796;52.388;13.096;2022-08-21T13:19:56;24.70;99.90
3564;DHT22;1796;52.388;13.096;2022-08-21T13:22:24;24.40;99.90
3564;DHT22;1796;52.388;13.096;2022-08-21T13:24:53;24.40;99.90
3564;DHT22;1796;52.388;13.096;2022-08-21T13:27:22;24.50;99.90
3564;DHT22;1796;52.388;13.096;2022-08-21T13:30:02;24.70;99.90
3564;DHT22;1796;52.388;13.096;2022-08-21T13:32:31;24.60;99.90
3564;DHT22;1796;52.388;13.096;2022-08-21T13:35:08;24.30;99.90
3564;DHT22;1796;52.388;13.096;2022-08-21T13:37:39;24.20;99.90
3564;DHT22;1796;52.388;13.096;2022-08-21T13:40:10;24.20;99.90
3564;DHT22;1796;52.388;13.096;2022-08-21T13:42:41;24.30;99.90
3564;DHT22;1796;52.388;13.096;2022-08-21T13:45:14;24.00;99.90
3564;DHT22;1796;52.388;13.096;2022-08-21T13:47:42;23.80;99.90
3564;DHT22;1796;52.388;13.096;2022-08-21T13:50:12;23.90;99.90
3564;DHT22;1796;52.388;13.096;2022-08-21T13:52:49;23.80;99.90
3564;DHT22;1796;52.388;13.096;2022-08-21T13:55:18;23.80;99.90
3564;DHT22;1796;52.388;13.096;2022-08-21T13:57:45;24.00;99.90
3564;DHT22;1796;52.388;13.096;2022-08-21T14:00:18;24.10;99.90
3564;DHT22;1796;52.388;13.096;2022-08-21T14:02:49;24.00;99.90
3564;DHT22;1796;52.388;13.096;2022-08-21T14:05:21;24.00;99.90
3564;DHT22;1796;52.388;13.096;2022-08-21T14:07:50;24.20;99.90
3564;DHT22;1796;52.388;13.096;2022-08-21T14:10:24;24.00;99.90
3564;DHT22;1796;52.388;13.096;2022-08-21T14:12:56;23.90;99.90
3564;DHT22;1796;52.388;13.096;2022-08-21T14:15:27;23.90;99.90
3564;DHT22;1796;52.388;13.096;2022-08-21T14:17:57;24.10;99.90
3564;DHT22;1796;52.388;13.096;2022-08-21T14:20:34;24.20;99.90
3564;DHT22;1796;52.388;13.096;2022-08-21T14:23:02;24.10;99.90
3564;DHT22;1796;52.388;13.096;2022-08-21T14:25:38;24.00;99.90
3564;DHT22;1796;52.388;13.096;2022-08-21T14:28:14;24.10;99.90
3564;DHT22;1796;52.388;13.096;2022-08-21T14:30:43;24.20;99.90
3564;DHT22;1796;52.388;13.096;2022-08-21T14:33:14;24.30;99.90
3564;DHT22;1796;52.388;13.096;2022-08-21T14:35:43;24.30;99.90
3564;DHT22;1796;52.388;13.096;2022-08-21T14:38:14;24.20;99.90
3564;DHT22;1796;52.388;13.096;2022-08-21T14:40:44;24.10;99.90
3564;DHT22;1796;52.388;13.096;2022-08-21T14:43:11;24.10;99.90
3564;DHT22;1796;52.388;13.096;2022-08-21T14:45:38;24.10;99.90
3564;DHT22;1796;52.388;13.096;2022-08-21T14:48:06;24.30;99.90
3564;DHT22;1796;52.388;13.096;2022-08-21T14:50:33;24.30;99.90
3564;DHT22;1796;52.388;13.096;2022-08-21T14:53:01;24.40;99.90
3564;DHT22;1796;52.388;13.096;2022-08-21T14:55:29;24.20;99.90
3564;DHT22;1796;52.388;13.096;2022-08-21T14:58:18;24.10;99.90
3564;DHT22;1796;52.388;13.096;2022-08-21T15:00:45;24.10;99.90
3564;DHT22;1796;52.388;13.096;2022-08-21T15:03:12;24.10;99.90
3564;DHT22;1796;52.388;13.096;2022-08-21T15:05:39;24.10;99.90
3564;DHT22;1796;52.388;13.096;2022-08-21T15:08:06;24.10;99.90
3564;DHT22;1796;52.388;13.096;2022-08-21T15:10:34;24.10;99.90
3564;DHT22;1796;52.388;13.096;2022-08-21T15:13:02;24.20;99.90
3564;DHT22;1796;52.388;13.096;2022-08-21T15:15:32;24.40;99.90
3564;DHT22;1796;52.388;13.096;2022-08-21T15:18:00;24.20;99.90
3564;DHT22;1796;52.388;13.096;2022-08-21T15:20:27;24.20;99.90
3564;DHT22;1796;52.388;13.096;2022-08-21T15:22:54;24.10;99.90
3564;DHT22;1796;52.388;13.096;2022-08-21T15:25:21;24.20;99.90
3564;DHT22;1796;52.388;13.096;2022-08-21T15:27:48;24.10;99.90
3564;DHT22;1796;52.388;13.096;2022-08-21T15:30:15;23.90;99.90
3564;DHT22;1796;52.388;13.096;2022-08-21T15:32:44;23.80;99.90
3564;DHT22;1796;52.388;13.096;2022-08-21T15:35:12;23.70;99.90
3564;DHT22;1796;52.388;13.096;2022-08-21T15:37:39;23.90;99.90
3564;DHT22;1796;52.388;13.096;2022-08-21T15:40:07;23.90;99.90
3564;DHT22;1796;52.388;13.096;2022-08-21T15:42:34;24.10;99.90
3564;DHT22;1796;52.388;13.096;2022-08-21T15:45:03;24.00;99.90
3564;DHT22;1796;52.388;13.096;2022-08-21T15:47:32;24.00;99.90
3564;DHT22;1796;52.388;13.096;2022-08-21T15:50:01;24.00;99.90
3564;DHT22;1796;52.388;13.096;2022-08-21T15:52:28;24.10;99.90
3564;DHT22;1796;52.388;13.096;2022-08-21T15:54:55;24.10;99.90
3564;DHT22;1796;52.388;13.096;2022-08-21T15:57:23;24.10;99.90
3564;DHT22;1796;52.388;13.096;2022-08-21T15:59:53;24.10;99.90
3564;DHT22;1796;52.388;13.096;2022-08-21T16:02:24;24.10;99.90
3564;DHT22;1796;52.388;13.096;2022-08-21T16:04:52;24.30;99.90